createdAt,value
2018-12-21T00:01:09.230Z,8.43
2018-12-21T00:03:36.713Z,8.47
2018-12-21T00:06:04.223Z,7.97
2018-12-21T00:08:31.702Z,7.63
2018-12-21T00:10:59.205Z,6.43
2018-12-21T00:13:26.702Z,6.40
2018-12-21T00:15:54.174Z,6.20
2018-12-21T00:18:21.676Z,6.67
2018-12-21T00:20:49.136Z,6.40
2018-12-21T00:23:16.616Z,7.03
2018-12-21T00:25:44.131Z,7.10
2018-12-21T00:28:11.589Z,7.33
2018-12-21T00:30:38.550Z,7.90
2018-12-21T00:33:11.570Z,7.80
2018-12-21T00:35:44.680Z,7.20
2018-12-21T00:38:17.594Z,6.90
2018-12-21T00:40:50.728Z,7.53
2018-12-21T00:43:22.026Z,7.30
2018-12-21T00:45:51.590Z,6.67
2018-12-21T00:48:19.094Z,7.20
2018-12-21T00:50:46.598Z,7.20
2018-12-21T00:53:14.078Z,7.13
2018-12-21T00:55:41.551Z,7.50
2018-12-21T00:58:09.080Z,7.17
2018-12-21T01:00:36.594Z,7.03
2018-12-21T01:03:04.095Z,7.03
2018-12-21T01:05:31.578Z,7.30
2018-12-21T01:07:59.091Z,6.97
2018-12-21T01:10:26.574Z,7.33
2018-12-21T01:12:54.099Z,6.63
2018-12-21T01:15:21.611Z,6.53
2018-12-21T01:17:49.133Z,6.33
2018-12-21T01:20:16.636Z,6.67
2018-12-21T01:22:44.094Z,6.83
2018-12-21T01:25:11.580Z,6.43
2018-12-21T01:27:39.090Z,6.83
2018-12-21T01:30:06.605Z,6.17
2018-12-21T01:32:34.114Z,6.63
2018-12-21T01:35:01.696Z,6.13
2018-12-21T01:37:29.238Z,6.23
2018-12-21T01:39:56.722Z,6.10
2018-12-21T01:42:24.239Z,6.90
2018-12-21T01:44:51.710Z,7.00
2018-12-21T01:47:19.183Z,6.27
2018-12-21T01:49:46.721Z,5.70
2018-12-21T01:52:14.187Z,5.60
2018-12-21T01:54:41.645Z,5.80
2018-12-21T01:57:09.136Z,5.40
2018-12-21T01:59:36.768Z,5.80
2018-12-21T02:02:04.355Z,5.37
2018-12-21T02:04:31.818Z,5.30
2018-12-21T02:06:59.349Z,5.30
2018-12-21T02:09:26.817Z,5.93
2018-12-21T02:11:54.296Z,5.13
2018-12-21T02:14:21.765Z,5.80
2018-12-21T02:16:49.249Z,5.57
2018-12-21T02:19:16.734Z,5.77
2018-12-21T02:21:44.202Z,5.83
2018-12-21T02:24:11.685Z,5.57
2018-12-21T02:26:39.170Z,5.73
2018-12-21T02:29:06.637Z,5.23
2018-12-21T02:31:34.128Z,6.07
2018-12-21T02:34:01.594Z,6.13
2018-12-21T02:36:29.092Z,5.53
2018-12-21T02:38:56.565Z,5.80
2018-12-21T02:41:24.034Z,5.83
2018-12-21T02:43:51.537Z,5.60
2018-12-21T02:46:19.014Z,5.43
2018-12-21T02:48:46.515Z,5.30
2018-12-21T02:51:13.979Z,5.87
2018-12-21T02:53:41.443Z,5.80
2018-12-21T02:56:08.907Z,5.40
2018-12-21T02:58:36.393Z,5.83
2018-12-21T03:01:03.905Z,4.87
2018-12-21T03:03:31.412Z,5.80
2018-12-21T03:05:58.909Z,5.53
2018-12-21T03:08:26.440Z,4.77
2018-12-21T03:10:53.896Z,5.30
2018-12-21T03:13:21.373Z,5.70
2018-12-21T03:15:48.825Z,5.20
2018-12-21T03:18:16.317Z,5.90
2018-12-21T03:20:43.827Z,5.53
2018-12-21T03:23:11.290Z,5.90
2018-12-21T03:25:38.764Z,5.50
2018-12-21T03:28:06.233Z,5.50
2018-12-21T03:30:33.724Z,5.47
2018-12-21T03:33:01.304Z,5.60
2018-12-21T03:35:28.808Z,5.30
2018-12-21T03:37:56.291Z,5.63
2018-12-21T03:40:23.759Z,5.27
2018-12-21T03:42:51.510Z,5.30
2018-12-21T03:45:19.000Z,5.13
2018-12-21T03:47:46.528Z,5.60
2018-12-21T03:50:14.077Z,5.83
2018-12-21T03:52:41.665Z,5.07
2018-12-21T03:55:09.211Z,5.17
2018-12-21T03:57:36.703Z,5.30
2018-12-21T04:00:05.356Z,5.70
2018-12-21T04:02:32.865Z,6.00
2018-12-21T04:05:00.362Z,5.33
2018-12-21T04:07:27.877Z,5.33
2018-12-21T04:09:55.460Z,5.10
2018-12-21T04:12:23.005Z,5.30
2018-12-21T04:14:50.526Z,5.20
2018-12-21T04:17:18.234Z,5.10
2018-12-21T04:19:45.712Z,5.10
2018-12-21T04:22:13.174Z,5.07
2018-12-21T04:24:40.658Z,5.37
2018-12-21T04:27:08.159Z,5.80
2018-12-21T04:29:35.661Z,5.33
2018-12-21T04:32:03.139Z,5.23
2018-12-21T04:34:30.606Z,4.93
2018-12-21T04:36:58.084Z,5.00
2018-12-21T04:39:25.557Z,5.17
2018-12-21T04:41:53.046Z,5.10
2018-12-21T04:44:20.523Z,4.87
2018-12-21T04:46:48.038Z,5.13
2018-12-21T04:49:15.514Z,4.73
2018-12-21T04:51:43.021Z,4.93
2018-12-21T04:54:10.523Z,4.60
2018-12-21T04:56:38.184Z,4.57
2018-12-21T04:59:05.650Z,4.13
2018-12-21T05:01:33.239Z,4.50
2018-12-21T05:04:00.718Z,4.67
2018-12-21T05:06:28.189Z,4.40
2018-12-21T05:08:55.689Z,4.27
2018-12-21T05:11:23.153Z,4.63
2018-12-21T05:13:50.694Z,4.93
2018-12-21T05:16:18.158Z,4.53
2018-12-21T05:18:45.615Z,4.70
2018-12-21T05:21:13.090Z,4.60
2018-12-21T05:23:40.565Z,4.70
2018-12-21T05:26:08.066Z,4.80
2018-12-21T05:28:35.566Z,4.60
2018-12-21T05:31:03.084Z,4.90
2018-12-21T05:33:30.617Z,4.50
2018-12-21T05:35:58.096Z,5.03
2018-12-21T05:38:25.564Z,4.37
2018-12-21T05:40:53.039Z,4.73
2018-12-21T05:43:20.516Z,4.93
2018-12-21T05:45:47.981Z,5.00
2018-12-21T05:48:15.495Z,5.03
2018-12-21T05:50:42.991Z,5.10
2018-12-21T05:53:10.524Z,5.10
2018-12-21T05:55:37.986Z,5.37
2018-12-21T05:58:05.449Z,4.93
2018-12-21T06:00:33.119Z,4.80
2018-12-21T06:03:00.577Z,4.97
2018-12-21T06:05:28.055Z,5.03
2018-12-21T06:07:55.566Z,5.10
2018-12-21T06:10:23.037Z,4.63
2018-12-21T06:12:50.515Z,4.90
2018-12-21T06:15:18.071Z,5.10
2018-12-21T06:17:45.555Z,5.00
2018-12-21T06:20:13.051Z,5.43
2018-12-21T06:22:40.550Z,5.10
2018-12-21T06:25:08.126Z,5.20
2018-12-21T06:27:35.621Z,4.70
2018-12-21T06:30:03.708Z,4.70
2018-12-21T06:32:31.243Z,5.17
2018-12-21T06:34:58.724Z,4.83
2018-12-21T06:37:26.189Z,4.90
2018-12-21T06:39:53.658Z,5.00
2018-12-21T06:42:21.155Z,5.40
2018-12-21T06:44:48.626Z,5.10
2018-12-21T06:47:16.183Z,5.33
2018-12-21T06:49:43.654Z,5.20
2018-12-21T06:52:11.146Z,4.70
2018-12-21T06:54:38.658Z,4.63
2018-12-21T06:57:06.116Z,4.60
2018-12-21T06:59:33.587Z,5.00
2018-12-21T07:02:01.129Z,4.70
2018-12-21T07:04:28.643Z,4.80
2018-12-21T07:06:56.290Z,4.60
2018-12-21T07:09:25.001Z,5.20
2018-12-21T07:11:52.475Z,4.80
2018-12-21T07:14:19.982Z,4.57
2018-12-21T07:16:47.447Z,5.10
2018-12-21T07:19:14.956Z,4.67
2018-12-21T07:21:42.431Z,4.43
2018-12-21T07:24:09.926Z,4.93
2018-12-21T07:26:37.432Z,5.00
2018-12-21T07:29:04.931Z,5.20
2018-12-21T07:31:32.422Z,5.10
2018-12-21T07:33:59.887Z,4.80
2018-12-21T07:36:27.364Z,5.43
2018-12-21T07:38:54.920Z,5.13
2018-12-21T07:41:22.411Z,5.07
2018-12-21T07:43:49.959Z,5.23
2018-12-21T07:46:17.455Z,5.33
2018-12-21T07:48:44.934Z,4.93
2018-12-21T07:51:12.426Z,5.30
2018-12-21T07:53:39.903Z,4.90
2018-12-21T07:56:07.371Z,4.90
2018-12-21T07:58:34.845Z,4.50
2018-12-21T08:01:02.454Z,4.90
2018-12-21T08:03:29.958Z,4.87
2018-12-21T08:05:57.427Z,5.07
2018-12-21T08:08:24.907Z,4.37
2018-12-21T08:10:52.368Z,4.70
2018-12-21T08:13:19.835Z,5.00
2018-12-21T08:15:47.312Z,5.10
2018-12-21T08:18:14.773Z,4.90
2018-12-21T08:20:42.262Z,5.37
2018-12-21T08:23:09.722Z,4.93
2018-12-21T08:25:37.214Z,4.40
2018-12-21T08:28:04.678Z,4.33
2018-12-21T08:30:32.144Z,4.77
2018-12-21T08:32:59.632Z,6.33
2018-12-21T08:35:27.094Z,7.97
2018-12-21T08:37:54.558Z,6.97
2018-12-21T08:40:22.026Z,5.37
2018-12-21T08:42:49.494Z,5.50
2018-12-21T08:45:16.977Z,6.60
2018-12-21T08:47:44.434Z,5.77
2018-12-21T08:50:11.901Z,5.80
2018-12-21T08:52:39.358Z,6.10
2018-12-21T08:55:06.826Z,5.40
2018-12-21T08:57:34.305Z,5.40
2018-12-21T09:00:01.767Z,5.93
2018-12-21T09:02:29.238Z,5.23
2018-12-21T09:04:56.694Z,5.80
2018-12-21T09:07:24.149Z,4.97
2018-12-21T09:09:51.629Z,5.10
2018-12-21T09:12:19.093Z,4.47
2018-12-21T09:14:46.554Z,4.03
2018-12-21T09:17:14.025Z,3.83
2018-12-21T09:19:41.496Z,4.03
2018-12-21T09:22:09.002Z,3.90
2018-12-21T09:24:36.480Z,3.57
2018-12-21T09:27:03.988Z,3.37
2018-12-21T09:29:31.459Z,3.33
2018-12-21T09:32:04.996Z,3.40
2018-12-21T09:34:28.432Z,3.87
2018-12-21T09:36:55.886Z,3.43
2018-12-21T09:39:23.338Z,3.50
2018-12-21T09:41:50.795Z,3.60
2018-12-21T09:44:18.272Z,3.30
2018-12-21T09:46:46.588Z,3.33
2018-12-21T09:49:14.050Z,3.60
2018-12-21T09:51:41.505Z,3.13
2018-12-21T09:54:10.091Z,3.50
2018-12-21T09:56:37.899Z,3.17
2018-12-21T09:59:05.366Z,3.27
2018-12-21T10:01:32.832Z,3.40
2018-12-21T10:04:00.303Z,4.03
2018-12-21T10:06:28.350Z,3.20
2018-12-21T10:08:55.822Z,3.17
2018-12-21T10:11:23.639Z,2.80
2018-12-21T10:13:51.156Z,3.00
2018-12-21T10:16:18.638Z,3.00
2018-12-21T10:18:46.131Z,3.00
2018-12-21T10:21:13.659Z,2.87
2018-12-21T10:23:41.204Z,3.10
2018-12-21T10:26:08.699Z,3.03
2018-12-21T10:28:36.216Z,3.00
2018-12-21T10:31:03.781Z,2.90
2018-12-21T10:33:31.273Z,2.40
2018-12-21T10:35:58.788Z,2.80
2018-12-21T10:38:26.246Z,2.50
2018-12-21T10:40:53.731Z,3.00
2018-12-21T10:43:21.207Z,3.47
2018-12-21T10:45:48.817Z,2.73
2018-12-21T10:48:16.312Z,2.60
2018-12-21T10:50:43.859Z,2.63
2018-12-21T10:53:11.394Z,2.90
2018-12-21T10:55:38.873Z,2.77
2018-12-21T10:58:06.362Z,3.10
2018-12-21T11:00:33.925Z,3.13
2018-12-21T11:03:01.383Z,3.10
2018-12-21T11:05:28.870Z,3.00
2018-12-21T11:07:56.338Z,3.70
2018-12-21T11:10:23.866Z,3.10
2018-12-21T11:12:51.397Z,2.90
2018-12-21T11:15:18.901Z,2.93
2018-12-21T11:17:46.387Z,2.70
2018-12-21T11:20:13.891Z,3.00
2018-12-21T11:22:41.426Z,2.70
2018-12-21T11:25:10.537Z,2.60
2018-12-21T11:27:38.010Z,2.60
2018-12-21T11:30:07.758Z,2.70
2018-12-21T11:32:35.257Z,2.90
2018-12-21T11:35:02.837Z,2.70
2018-12-21T11:37:30.424Z,2.93
2018-12-21T11:39:57.906Z,2.70
2018-12-21T11:42:25.383Z,3.20
2018-12-21T11:44:52.866Z,3.30
2018-12-21T11:47:20.362Z,3.30
2018-12-21T11:49:47.855Z,3.57
2018-12-21T11:52:15.879Z,3.07
2018-12-21T11:54:44.484Z,3.13
2018-12-21T11:57:13.101Z,3.00
2018-12-21T11:59:44.804Z,2.77
2018-12-21T12:02:10.087Z,2.93
2018-12-21T12:04:38.373Z,2.73
2018-12-21T12:07:05.882Z,2.70
2018-12-21T12:09:33.401Z,3.00
2018-12-21T12:12:00.866Z,3.00
2018-12-21T12:14:28.328Z,3.10
2018-12-21T12:16:55.806Z,2.80
2018-12-21T12:19:23.292Z,2.70
2018-12-21T12:21:50.806Z,2.60
2018-12-21T12:24:18.261Z,2.67
2018-12-21T12:26:45.747Z,2.90
2018-12-21T12:29:13.231Z,3.10
2018-12-21T12:31:42.924Z,2.60
2018-12-21T12:34:10.289Z,2.70
2018-12-21T12:36:37.774Z,3.57
2018-12-21T12:39:06.183Z,2.70
2018-12-21T12:41:33.800Z,2.90
2018-12-21T12:44:01.295Z,2.80
2018-12-21T12:46:28.784Z,3.10
2018-12-21T12:48:56.372Z,2.87
2018-12-21T12:51:23.873Z,3.00
2018-12-21T12:53:51.504Z,2.93
2018-12-21T12:56:18.983Z,4.30
2018-12-21T12:58:46.496Z,3.47
2018-12-21T13:01:14.170Z,3.23
2018-12-21T13:03:42.567Z,3.30
2018-12-21T13:06:10.436Z,3.40
2018-12-21T13:08:38.996Z,3.50
2018-12-21T13:11:06.615Z,3.10
2018-12-21T13:13:34.146Z,3.20
2018-12-21T13:16:01.639Z,3.80
2018-12-21T13:18:29.177Z,3.33
2018-12-21T13:20:57.609Z,2.80
2018-12-21T13:23:25.126Z,3.10
2018-12-21T13:25:52.623Z,2.73
2018-12-21T13:28:20.135Z,2.77
2018-12-21T13:30:47.622Z,2.80
2018-12-21T13:33:15.146Z,2.70
2018-12-21T13:35:42.616Z,2.93
2018-12-21T13:38:10.095Z,2.40
2018-12-21T13:40:37.593Z,2.70
2018-12-21T13:43:05.098Z,2.30
2018-12-21T13:45:32.588Z,2.40
2018-12-21T13:48:00.203Z,2.33
2018-12-21T13:50:27.698Z,2.43
2018-12-21T13:52:55.186Z,2.60
2018-12-21T13:55:22.970Z,2.60
2018-12-21T13:57:50.645Z,2.67
2018-12-21T14:00:18.136Z,2.60
2018-12-21T14:02:45.706Z,2.50
2018-12-21T14:05:13.340Z,2.57
2018-12-21T14:07:40.863Z,2.83
2018-12-21T14:10:10.229Z,2.70
2018-12-21T14:12:37.931Z,2.60
2018-12-21T14:15:06.505Z,2.57
2018-12-21T14:17:34.106Z,2.40
2018-12-21T14:20:01.721Z,2.60
2018-12-21T14:22:29.244Z,2.50
2018-12-21T14:24:56.775Z,2.30
2018-12-21T14:27:24.260Z,2.50
2018-12-21T14:29:51.787Z,2.77
2018-12-21T14:32:19.277Z,5.47
2018-12-21T14:34:46.792Z,2.87
2018-12-21T14:37:14.317Z,3.07
2018-12-21T14:39:42.024Z,2.93
2018-12-21T14:42:09.562Z,3.00
2018-12-21T14:44:37.055Z,3.30
2018-12-21T14:47:04.761Z,2.80
2018-12-21T14:49:32.305Z,2.80
2018-12-21T14:51:59.798Z,2.70
2018-12-21T14:54:27.266Z,2.93
2018-12-21T14:56:54.733Z,3.20
2018-12-21T14:59:22.549Z,3.00
2018-12-21T15:01:50.067Z,2.60
2018-12-21T15:04:17.778Z,2.70
2018-12-21T15:06:45.283Z,2.63
2018-12-21T15:09:12.952Z,2.70
2018-12-21T15:11:40.470Z,2.90
2018-12-21T15:14:08.249Z,3.13
2018-12-21T15:16:35.747Z,2.50
2018-12-21T15:19:03.566Z,2.70
2018-12-21T15:21:31.083Z,2.60
2018-12-21T15:23:58.843Z,2.93
2018-12-21T15:26:26.359Z,2.70
2018-12-21T15:28:53.829Z,3.10
2018-12-21T15:31:21.290Z,3.40
2018-12-21T15:33:48.854Z,2.73
2018-12-21T15:36:16.342Z,2.70
2018-12-21T15:38:43.815Z,2.70
2018-12-21T15:41:11.288Z,2.53
2018-12-21T15:43:38.750Z,2.60
2018-12-21T15:46:06.302Z,3.60
2018-12-21T15:48:33.793Z,3.20
2018-12-21T15:51:01.271Z,2.70
2018-12-21T15:53:28.740Z,2.50
2018-12-21T15:55:56.293Z,2.30
2018-12-21T15:58:23.779Z,2.43
2018-12-21T16:00:51.257Z,2.63
2018-12-21T16:03:18.718Z,2.60
2018-12-21T16:05:46.218Z,2.30
2018-12-21T16:08:14.035Z,2.37
2018-12-21T16:10:41.537Z,2.30
2018-12-21T16:13:09.262Z,2.80
2018-12-21T16:15:36.745Z,2.37
2018-12-21T16:18:04.505Z,2.17
2018-12-21T16:20:32.009Z,2.53
2018-12-21T16:22:59.482Z,2.57
2018-12-21T16:25:26.951Z,2.43
2018-12-21T16:27:54.439Z,2.57
2018-12-21T16:30:21.930Z,2.50
2018-12-21T16:32:49.394Z,2.40
2018-12-21T16:35:16.879Z,2.53
2018-12-21T16:37:44.344Z,2.60
2018-12-21T16:40:11.819Z,2.87
2018-12-21T16:42:39.311Z,2.50
2018-12-21T16:45:08.497Z,2.47
2018-12-21T16:47:35.976Z,2.70
2018-12-21T16:50:06.123Z,2.90
2018-12-21T16:52:33.592Z,2.80
2018-12-21T16:55:01.068Z,2.20
2018-12-21T16:57:28.598Z,2.20
2018-12-21T16:59:56.075Z,2.40
2018-12-21T17:02:23.554Z,2.30
2018-12-21T17:04:51.032Z,2.80
2018-12-21T17:07:18.523Z,2.50
2018-12-21T17:09:46.469Z,2.40
2018-12-21T17:12:14.115Z,2.57
2018-12-21T17:14:42.430Z,2.30
2018-12-21T17:17:09.991Z,2.60
2018-12-21T17:19:37.477Z,2.80
2018-12-21T17:22:04.943Z,2.53
2018-12-21T17:24:32.444Z,2.40
2018-12-21T17:26:59.904Z,2.90
2018-12-21T17:29:28.821Z,2.50
2018-12-21T17:31:56.495Z,2.30
2018-12-21T17:34:23.991Z,2.13
2018-12-21T17:36:51.705Z,2.40
2018-12-21T17:39:19.300Z,2.43
2018-12-21T17:41:46.796Z,2.50
2018-12-21T17:44:14.271Z,2.20
2018-12-21T17:46:41.757Z,2.07
2018-12-21T17:49:09.223Z,2.30
2018-12-21T17:51:38.500Z,2.60
2018-12-21T17:54:06.316Z,2.83
2018-12-21T17:56:33.797Z,2.60
2018-12-21T17:59:01.295Z,2.10
2018-12-21T18:01:28.762Z,1.93
2018-12-21T18:03:56.242Z,2.50
2018-12-21T18:06:23.747Z,2.60
2018-12-21T18:08:51.226Z,2.30
2018-12-21T18:11:18.690Z,2.33
2018-12-21T18:13:46.163Z,2.00
2018-12-21T18:16:13.656Z,2.20
2018-12-21T18:18:41.176Z,2.13
2018-12-21T18:21:08.667Z,2.60
2018-12-21T18:23:36.216Z,2.47
2018-12-21T18:26:03.700Z,2.50
2018-12-21T18:28:31.175Z,2.20
2018-12-21T18:31:01.851Z,2.50
2018-12-21T18:33:29.339Z,2.67
2018-12-21T18:35:56.819Z,2.50
2018-12-21T18:38:24.505Z,2.30
2018-12-21T18:40:51.988Z,2.40
2018-12-21T18:43:19.579Z,2.40
2018-12-21T18:45:47.084Z,2.40
2018-12-21T18:48:14.560Z,2.20
2018-12-21T18:50:42.051Z,2.10
2018-12-21T18:53:09.548Z,2.47
2018-12-21T18:55:37.139Z,2.20
2018-12-21T18:58:04.615Z,2.27
2018-12-21T19:00:32.098Z,2.80
2018-12-21T19:02:59.581Z,2.67
2018-12-21T19:05:27.054Z,2.60
2018-12-21T19:07:54.529Z,2.50
2018-12-21T19:10:23.004Z,2.70
2018-12-21T19:12:50.486Z,2.60
2018-12-21T19:15:17.966Z,2.40
2018-12-21T19:17:45.434Z,2.43
2018-12-21T19:20:12.911Z,2.40
2018-12-21T19:22:40.423Z,2.20
2018-12-21T19:25:08.138Z,2.70
2018-12-21T19:27:35.753Z,2.30
2018-12-21T19:30:03.653Z,2.27
2018-12-21T19:32:31.147Z,2.40
2018-12-21T19:34:58.653Z,2.30
2018-12-21T19:37:26.295Z,2.70
2018-12-21T19:39:53.969Z,2.60
2018-12-21T19:42:21.465Z,2.67
2018-12-21T19:44:48.937Z,2.40
2018-12-21T19:47:16.501Z,2.93
2018-12-21T19:49:44.147Z,3.30
2018-12-21T19:52:11.676Z,2.80
2018-12-21T19:54:39.177Z,2.37
2018-12-21T19:57:06.798Z,2.30
2018-12-21T19:59:34.438Z,2.50
2018-12-21T20:02:01.913Z,2.47
2018-12-21T20:04:29.389Z,2.60
2018-12-21T20:06:56.975Z,2.67
2018-12-21T20:09:24.585Z,2.33
2018-12-21T20:11:53.628Z,2.30
2018-12-21T20:14:21.153Z,2.60
2018-12-21T20:16:48.661Z,2.27
2018-12-21T20:19:16.296Z,2.20
2018-12-21T20:21:43.911Z,2.50
2018-12-21T20:24:11.434Z,2.50
2018-12-21T20:26:38.929Z,2.30
2018-12-21T20:29:06.577Z,2.40
2018-12-21T20:31:34.399Z,2.10
2018-12-21T20:34:02.052Z,2.20
2018-12-21T20:36:29.554Z,2.50
2018-12-21T20:38:58.007Z,2.27
2018-12-21T20:41:25.754Z,2.30
2018-12-21T20:43:53.415Z,2.17
2018-12-21T20:46:20.991Z,2.50
2018-12-21T20:48:48.544Z,2.37
2018-12-21T20:51:16.284Z,2.50
2018-12-21T20:53:43.973Z,3.00
2018-12-21T20:56:11.524Z,2.60
2018-12-21T20:58:39.134Z,2.80
2018-12-21T21:01:06.622Z,2.20
2018-12-21T21:03:34.122Z,2.60
2018-12-21T21:06:01.657Z,2.37
2018-12-21T21:08:29.193Z,2.20
2018-12-21T21:10:56.723Z,2.33
2018-12-21T21:13:24.227Z,2.40
2018-12-21T21:15:51.766Z,2.90
2018-12-21T21:18:19.295Z,2.70
2018-12-21T21:20:46.805Z,2.37
2018-12-21T21:23:14.317Z,2.67
2018-12-21T21:25:41.798Z,2.40
2018-12-21T21:28:09.355Z,2.47
2018-12-21T21:30:36.830Z,2.60
2018-12-21T21:33:04.332Z,2.40
2018-12-21T21:35:31.898Z,2.53
2018-12-21T21:37:59.398Z,2.80
2018-12-21T21:40:27.005Z,2.87
2018-12-21T21:42:57.674Z,2.27
2018-12-21T21:45:24.127Z,2.33
2018-12-21T21:47:51.735Z,2.50
2018-12-21T21:50:19.241Z,2.87
2018-12-21T21:52:46.746Z,2.50
2018-12-21T21:55:14.306Z,2.10
2018-12-21T21:57:41.803Z,2.30
2018-12-21T22:00:11.355Z,2.40
2018-12-21T22:02:39.036Z,2.53
2018-12-21T22:05:06.573Z,2.50
2018-12-21T22:07:34.097Z,2.33
2018-12-21T22:10:01.597Z,2.60
2018-12-21T22:12:29.168Z,2.80
2018-12-21T22:14:56.646Z,2.53
2018-12-21T22:17:24.165Z,2.57
2018-12-21T22:19:51.705Z,2.30
2018-12-21T22:22:20.277Z,2.30
2018-12-21T22:24:47.810Z,2.47
2018-12-21T22:27:15.307Z,2.53
2018-12-21T22:29:43.878Z,3.30
2018-12-21T22:32:11.403Z,2.90
2018-12-21T22:34:39.698Z,2.40
2018-12-21T22:37:07.247Z,2.53
2018-12-21T22:39:34.748Z,2.50
2018-12-21T22:42:02.263Z,2.80
2018-12-21T22:44:29.770Z,2.10
2018-12-21T22:46:57.255Z,2.83
2018-12-21T22:49:24.814Z,3.00
2018-12-21T22:51:52.315Z,2.43
2018-12-21T22:54:19.843Z,2.53
2018-12-21T22:56:47.389Z,1.90
2018-12-21T22:59:14.923Z,2.50
2018-12-21T23:01:42.416Z,2.77
2018-12-21T23:04:09.907Z,2.27
2018-12-21T23:06:37.390Z,2.47
2018-12-21T23:09:05.330Z,2.50
2018-12-21T23:11:32.863Z,1.90
2018-12-21T23:14:00.390Z,2.00
2018-12-21T23:16:27.897Z,1.90
2018-12-21T23:18:55.441Z,1.87
2018-12-21T23:21:22.917Z,1.97
2018-12-21T23:23:50.422Z,2.10
2018-12-21T23:26:17.919Z,1.80
2018-12-21T23:28:45.446Z,2.00
2018-12-21T23:31:12.937Z,1.70
2018-12-21T23:33:40.427Z,2.00
2018-12-21T23:36:08.037Z,1.50
2018-12-21T23:38:35.562Z,1.80
2018-12-21T23:41:03.070Z,1.80
2018-12-21T23:43:30.599Z,2.10
2018-12-21T23:45:58.170Z,1.90
2018-12-21T23:48:25.713Z,1.70
2018-12-21T23:50:53.242Z,1.80
2018-12-21T23:53:20.767Z,1.73
2018-12-21T23:55:48.247Z,1.90
2018-12-21T23:58:15.727Z,1.57
